Time;durP1;ratioP1;P1;durP2;ratioP2;P2;SDS_P1;SDS_P2;PMS_P1;PMS_P2;Temp;Humidity;BMP_temperature;BMP_pressure;BME280_temperature;BME280_humidity;BME280_pressure;Samples;Min_cycle;Max_cycle;Signal;HPM_P1;HPM_P2
2022/09/21 00:01:09;;;;;;;1.55;1.45;;;;;;;9.29;72.24;99729.28;4937334;29;20448;-67
2022/09/21 00:03:37;;;;;;;1.50;1.40;;;;;;;9.24;72.59;99723.66;4937557;29;20056;-68
2022/09/21 00:06:06;;;;;;;2.65;1.33;;;;;;;9.23;72.81;99735.22;4937879;29;20102;-68
2022/09/21 00:08:33;;;;;;;1.20;1.10;;;;;;;9.21;72.98;99726.63;4937368;29;20047;-68
2022/09/21 00:11:00;;;;;;;2.72;1.45;;;;;;;9.19;72.80;99733.88;4937215;29;20333;-67
2022/09/21 00:13:27;;;;;;;1.45;1.30;;;;;;;9.16;72.61;99729.72;4937098;29;20384;-67
2022/09/21 00:15:55;;;;;;;1.33;1.23;;;;;;;9.14;72.87;99737.00;4936957;29;20503;-68
2022/09/21 00:18:22;;;;;;;1.70;1.38;;;;;;;9.10;72.80;99735.66;4936654;29;20096;-68
2022/09/21 00:20:51;;;;;;;1.63;1.50;;;;;;;9.06;72.73;99734.34;4936074;29;20067;-68
2022/09/21 00:23:18;;;;;;;1.80;1.10;;;;;;;9.03;73.20;99733.81;4937164;29;20570;-67
2022/09/21 00:25:45;;;;;;;1.33;1.10;;;;;;;9.04;72.87;99738.09;4936828;29;20051;-67
2022/09/21 00:28:11;;;;;;;1.98;1.40;;;;;;;9.03;73.05;99731.19;4936614;29;20095;-67
2022/09/21 00:30:38;;;;;;;1.98;1.50;;;;;;;9.00;72.90;99734.13;4936896;29;20040;-68
2022/09/21 00:33:05;;;;;;;2.10;1.50;;;;;;;8.99;72.91;99732.50;4935775;29;20082;-68
2022/09/21 00:35:33;;;;;;;1.42;1.23;;;;;;;8.96;73.01;99733.63;4936954;29;20053;-68
2022/09/21 00:38:01;;;;;;;1.70;1.42;;;;;;;8.92;72.90;99730.47;4936068;29;20562;-68
2022/09/21 00:40:28;;;;;;;2.03;1.77;;;;;;;8.89;72.68;99738.69;4937005;29;20496;-67
2022/09/21 00:43:16;;;;;;;3.15;1.65;;;;;;;8.86;72.85;99739.03;4936974;29;20102;-68
2022/09/21 00:45:45;;;;;;;1.50;1.40;;;;;;;8.82;72.89;99735.06;4935511;29;20496;-68
2022/09/21 00:48:13;;;;;;;3.10;1.88;;;;;;;8.80;72.95;99742.28;4936248;29;20090;-68
2022/09/21 00:50:45;;;;;;;3.22;1.80;;;;;;;8.77;72.85;99741.78;4936618;29;20099;-67
2022/09/21 00:53:13;;;;;;;2.25;1.50;;;;;;;8.74;73.15;99736.84;4936633;29;20567;-67
2022/09/21 00:55:48;;;;;;;2.55;1.70;;;;;;;8.75;73.22;99741.13;4938201;29;20511;-67
2022/09/21 00:58:19;;;;;;;2.67;1.50;;;;;;;8.70;72.96;99744.25;4937659;29;20048;-68
2022/09/21 01:00:46;;;;;;;2.35;1.30;;;;;;;8.66;72.65;99742.91;4936004;29;20568;-68
2022/09/21 01:03:12;;;;;;;1.30;1.20;;;;;;;8.64;72.96;99742.22;4935085;29;20046;-68
2022/09/21 01:05:39;;;;;;;1.80;1.40;;;;;;;8.61;72.77;99745.16;4919149;29;20103;-68
2022/09/21 01:08:11;;;;;;;1.52;1.40;;;;;;;8.59;72.99;99744.50;4935661;29;20055;-67
2022/09/21 01:11:03;;;;;;;1.80;1.33;;;;;;;8.58;73.09;99742.84;4935922;29;20500;-68
2022/09/21 01:13:46;;;;;;;2.60;1.27;;;;;;;8.56;73.03;99742.16;4936078;29;20051;-67
2022/09/21 01:16:16;;;;;;;2.25;1.50;;;;;;;8.53;73.06;99738.06;4934336;29;20047;-67
2022/09/21 01:19:11;;;;;;;1.83;1.50;;;;;;;8.49;72.98;99741.13;4934887;29;20066;-68
2022/09/21 01:22:10;;;;;;;2.65;1.20;;;;;;;8.47;73.05;99732.56;4934653;29;20048;-67
2022/09/21 01:24:52;;;;;;;2.03;1.42;;;;;;;8.41;72.45;99736.69;4922360;29;20111;-67
2022/09/21 01:27:45;;;;;;;1.83;1.52;;;;;;;8.36;72.90;99736.25;4935466;29;20090;-68
2022/09/21 01:30:15;;;;;;;1.42;1.33;;;;;;;8.34;73.10;99738.25;4935880;29;20480;-68
2022/09/21 01:32:48;;;;;;;1.80;0.93;;;;;;;8.32;72.93;99738.38;4934992;29;20047;-68
2022/09/21 01:35:20;;;;;;;1.90;1.42;;;;;;;8.32;72.89;99737.56;4935714;29;20111;-68
2022/09/21 01:38:12;;;;;;;4.10;1.52;;;;;;;8.26;72.72;99739.00;4934305;29;20055;-68
2022/09/21 01:40:42;;;;;;;3.90;2.00;;;;;;;8.18;72.64;99737.16;4938070;29;20575;-68
2022/09/21 01:43:14;;;;;;;2.67;1.50;;;;;;;8.12;72.56;99745.69;4937564;29;20131;-68
2022/09/21 01:45:46;;;;;;;3.30;1.63;;;;;;;8.09;73.07;99745.16;4934838;29;20056;-68
2022/09/21 01:48:14;;;;;;;2.00;1.48;;;;;;;8.08;73.45;99746.97;4934021;29;20043;-69
2022/09/21 01:50:45;;;;;;;1.65;1.55;;;;;;;8.06;72.86;99748.09;4935375;29;20036;-69
2022/09/21 01:53:36;;;;;;;1.48;1.30;;;;;;;8.05;73.09;99749.91;4934069;29;20055;-69
2022/09/21 01:56:11;;;;;;;1.85;1.25;;;;;;;8.06;73.40;99743.63;4933992;29;20130;-69
2022/09/21 01:58:45;;;;;;;2.10;1.60;;;;;;;8.07;73.31;99747.09;4935450;29;20052;-68
2022/09/21 02:01:16;;;;;;;4.25;2.65;;;;;;;8.04;72.90;99745.63;4935335;29;20415;-68
2022/09/21 02:04:07;;;;;;;3.40;2.50;;;;;;;8.01;73.00;99739.81;4918230;29;20055;-68
2022/09/21 02:06:36;;;;;;;3.30;2.13;;;;;;;8.00;73.15;99746.03;4933525;29;20047;-68
2022/09/21 02:09:03;;;;;;;3.22;2.03;;;;;;;7.98;72.92;99748.03;4933967;29;20134;-69
2022/09/21 02:11:29;;;;;;;3.58;2.28;;;;;;;7.93;72.98;99743.22;4933861;29;20078;-68
2022/09/21 02:13:56;;;;;;;2.33;1.77;;;;;;;7.92;73.53;99746.84;4935172;29;20059;-68
2022/09/21 02:16:38;;;;;;;1.80;1.20;;;;;;;7.92;73.25;99752.94;4933339;29;20051;-68
2022/09/21 02:19:23;;;;;;;1.45;1.30;;;;;;;7.89;73.19;99745.31;4934525;29;20056;-68
2022/09/21 02:21:49;;;;;;;2.17;1.70;;;;;;;7.85;72.58;99743.97;4938419;29;20563;-68
2022/09/21 02:24:22;;;;;;;1.30;1.20;;;;;;;7.84;72.84;99746.78;4938907;29;20083;-68
2022/09/21 02:26:58;;;;;;;3.63;1.30;;;;;;;7.83;72.95;99740.66;4933644;29;20044;-69
2022/09/21 02:29:31;;;;;;;1.92;1.38;;;;;;;7.82;72.88;99736.38;4934899;29;20103;-68
2022/09/21 02:32:08;;;;;;;3.00;1.80;;;;;;;7.80;72.65;99740.16;4933668;29;20056;-69
2022/09/21 02:34:48;;;;;;;3.70;1.92;;;;;;;7.72;72.76;99735.66;4934851;29;20389;-68
2022/09/21 02:37:32;;;;;;;2.83;1.95;;;;;;;7.67;72.80;99735.25;4934342;29;20047;-68
2022/09/21 02:40:22;;;;;;;1.48;1.38;;;;;;;7.61;73.00;99736.69;4934789;29;20460;-68
2022/09/21 02:42:55;;;;;;;2.15;1.65;;;;;;;7.57;72.85;99739.78;4934829;29;20052;-68
2022/09/21 02:45:27;;;;;;;1.40;1.30;;;;;;;7.51;73.09;99737.72;4934842;29;20100;-68
2022/09/21 02:48:09;;;;;;;1.85;1.50;;;;;;;7.45;73.49;99741.78;4934254;29;20543;-69
2022/09/21 02:50:49;;;;;;;1.63;1.50;;;;;;;7.42;73.56;99732.38;4934659;29;20448;-68
2022/09/21 02:53:22;;;;;;;2.60;1.30;;;;;;;7.42;73.43;99737.66;4934907;29;20408;-68
2022/09/21 02:55:50;;;;;;;1.67;1.30;;;;;;;7.39;73.69;99734.53;4933506;29;20055;-68
2022/09/21 02:58:25;;;;;;;2.15;1.20;;;;;;;7.37;73.64;99737.28;4933433;29;20099;-68
2022/09/21 03:00:53;;;;;;;1.80;1.40;;;;;;;7.34;73.29;99742.84;4935199;29;20091;-68
2022/09/21 03:03:23;;;;;;;1.00;1.00;;;;;;;7.33;73.84;99735.09;4934742;29;20496;-68
2022/09/21 03:05:53;;;;;;;1.35;1.00;;;;;;;7.32;74.25;99744.78;4939021;29;20040;-68
2022/09/21 03:08:21;;;;;;;3.58;1.48;;;;;;;7.32;73.68;99733.44;4934322;29;20455;-68
2022/09/21 03:10:48;;;;;;;1.52;1.20;;;;;;;7.30;73.79;99735.38;4933328;29;20039;-68
2022/09/21 03:13:16;;;;;;;1.00;0.98;;;;;;;7.31;73.94;99737.88;4934661;29;20098;-68
2022/09/21 03:15:44;;;;;;;1.40;1.30;;;;;;;7.28;74.03;99740.81;4933222;29;20158;-68
2022/09/21 03:18:12;;;;;;;1.48;1.08;;;;;;;7.25;73.69;99740.28;4934013;29;20078;-68
2022/09/21 03:20:44;;;;;;;1.83;1.23;;;;;;;7.21;73.54;99742.38;4934414;29;20117;-68
2022/09/21 03:23:11;;;;;;;2.22;1.35;;;;;;;7.18;73.80;99740.03;4934675;29;20095;-68
2022/09/21 03:25:38;;;;;;;1.83;1.30;;;;;;;7.14;73.60;99739.53;4934340;29;20052;-68
2022/09/21 03:28:04;;;;;;;1.50;1.40;;;;;;;7.08;73.74;99740.09;4932931;29;20051;-68
2022/09/21 03:30:31;;;;;;;2.08;1.58;;;;;;;7.06;73.86;99749.94;4934518;29;20103;-68
2022/09/21 03:32:58;;;;;;;2.53;1.55;;;;;;;7.02;73.78;99740.69;4934405;29;20051;-68
2022/09/21 03:35:25;;;;;;;1.23;1.10;;;;;;;7.01;74.24;99752.16;4935821;29;20047;-68
2022/09/21 03:37:53;;;;;;;0.80;0.80;;;;;;;7.03;74.51;99752.88;4937304;29;20040;-68
2022/09/21 03:40:20;;;;;;;0.82;0.82;;;;;;;7.06;74.66;99755.22;4936629;29;20111;-68
2022/09/21 03:42:47;;;;;;;1.20;1.10;;;;;;;7.11;74.14;99757.38;4937825;29;20511;-68
2022/09/21 03:45:13;;;;;;;2.38;1.50;;;;;;;7.09;73.56;99754.88;4937487;29;20047;-68
2022/09/21 03:47:41;;;;;;;1.30;1.20;;;;;;;7.06;73.76;99757.84;4937103;29;20044;-68
2022/09/21 03:50:08;;;;;;;1.20;1.10;;;;;;;7.02;73.78;99753.84;4937714;29;20110;-68
2022/09/21 03:52:37;;;;;;;2.33;1.42;;;;;;;6.93;73.71;99752.06;4937461;29;20086;-67
2022/09/21 03:55:06;;;;;;;2.53;1.77;;;;;;;6.88;73.53;99747.25;4937414;29;20054;-67
2022/09/21 03:57:34;;;;;;;1.63;1.52;;;;;;;6.82;73.38;99750.47;4936940;29;20047;-67
2022/09/21 04:02:59;;;;;;;1.98;1.38;;;;;;;6.79;73.92;99757.81;5190951;23;20043;-66
2022/09/21 04:05:26;;;;;;;1.80;1.63;;;;;;;6.79;74.03;99763.91;4925760;29;20138;-66
2022/09/21 04:07:55;;;;;;;2.45;1.60;;;;;;;6.79;73.79;99761.28;4937719;29;20115;-65
2022/09/21 04:10:28;;;;;;;3.00;2.17;;;;;;;6.78;73.54;99758.81;4937626;29;20052;-65
2022/09/21 04:13:00;;;;;;;2.42;1.85;;;;;;;6.75;73.56;99759.09;4938987;29;20058;-65
2022/09/21 04:15:27;;;;;;;2.83;2.10;;;;;;;6.72;73.82;99762.00;4939359;29;20059;-66
2022/09/21 04:17:54;;;;;;;2.80;1.70;;;;;;;6.69;73.62;99766.59;4936198;29;20048;-66
2022/09/21 04:20:21;;;;;;;2.25;1.80;;;;;;;6.68;73.79;99766.72;4937486;29;20055;-66
2022/09/21 04:22:48;;;;;;;2.92;2.00;;;;;;;6.67;73.80;99771.13;4935930;29;20051;-67
2022/09/21 04:25:15;;;;;;;3.53;1.73;;;;;;;6.67;73.92;99767.69;4936116;29;20079;-67
2022/09/21 04:27:42;;;;;;;1.70;1.42;;;;;;;6.65;73.61;99770.47;4919489;29;20051;-67
2022/09/21 04:30:13;;;;;;;2.22;1.83;;;;;;;6.66;73.85;99766.03;4921755;29;20515;-67
2022/09/21 04:32:40;;;;;;;1.40;1.30;;;;;;;6.65;73.94;99761.72;4941820;29;20063;-66
2022/09/21 04:35:07;;;;;;;1.55;1.38;;;;;;;6.66;74.00;99769.50;4943501;29;20051;-67
2022/09/21 04:37:34;;;;;;;2.33;1.50;;;;;;;6.66;73.73;99772.13;4926761;29;20054;-65
2022/09/21 04:40:00;;;;;;;1.38;1.23;;;;;;;6.66;73.79;99769.50;4945248;29;20579;-67
2022/09/21 04:42:28;;;;;;;2.50;1.50;;;;;;;6.68;73.77;99777.22;4946832;29;20070;-67
2022/09/21 04:44:55;;;;;;;1.58;1.27;;;;;;;6.69;73.87;99779.72;4945306;29;20056;-67
2022/09/21 04:47:24;;;;;;;1.60;1.50;;;;;;;6.69;73.49;99776.22;4942506;29;20051;-67
2022/09/21 04:49:51;;;;;;;2.55;1.67;;;;;;;6.64;72.96;99781.09;4944037;29;20397;-67
2022/09/21 04:52:18;;;;;;;1.50;1.40;;;;;;;6.57;73.09;99787.88;4942652;29;20072;-67
2022/09/21 04:54:46;;;;;;;2.15;1.63;;;;;;;6.48;73.10;99788.75;4937335;29;20089;-67
2022/09/21 04:57:13;;;;;;;1.30;1.20;;;;;;;6.41;73.28;99791.97;4934803;29;20056;-67
2022/09/21 04:59:40;;;;;;;1.85;1.58;;;;;;;6.37;73.54;99789.75;4935295;29;20062;-67
2022/09/21 05:02:06;;;;;;;1.88;1.27;;;;;;;6.34;73.86;99793.50;4934999;29;20048;-67
2022/09/21 05:04:33;;;;;;;2.65;1.52;;;;;;;6.34;73.54;99793.50;4935407;29;20048;-67
2022/09/21 05:06:59;;;;;;;2.63;1.88;;;;;;;6.33;73.50;99798.91;4935060;29;20104;-67
2022/09/21 05:12:11;;;;;;;3.38;1.60;;;;;;;6.32;73.65;99800.66;4937405;29;20459;-65
2022/09/21 05:14:37;;;;;;;3.00;1.65;;;;;;;6.31;73.60;99803.44;4936280;29;20088;-65
2022/09/21 05:17:04;;;;;;;2.40;2.20;;;;;;;6.31;73.50;99800.81;4936849;29;20098;-65
2022/09/21 05:19:30;;;;;;;2.20;1.83;;;;;;;6.32;73.56;99803.28;4937197;29;20052;-65
2022/09/21 05:21:57;;;;;;;2.35;1.90;;;;;;;6.32;73.49;99805.91;4937834;29;20099;-66
2022/09/21 05:24:23;;;;;;;3.30;2.00;;;;;;;6.32;73.36;99803.28;4936606;29;20048;-66
2022/09/21 05:26:50;;;;;;;3.50;2.05;;;;;;;6.33;73.65;99809.41;4936123;29;20601;-66
2022/09/21 05:29:17;;;;;;;2.67;1.90;;;;;;;6.34;73.61;99811.88;4936482;29;20051;-66
2022/09/21 05:31:51;;;;;;;3.30;2.08;;;;;;;6.37;73.56;99816.84;4936725;29;20090;-66
2022/09/21 05:34:40;;;;;;;3.13;2.20;;;;;;;6.39;73.34;99809.66;4937878;29;20415;-66
2022/09/21 05:37:36;;;;;;;1.92;1.83;;;;;;;6.41;73.23;99815.59;4919794;29;20460;-66
2022/09/21 05:40:04;;;;;;;3.22;2.10;;;;;;;6.44;73.30;99810.03;4935745;29;20048;-66
2022/09/21 05:42:31;;;;;;;2.72;1.85;;;;;;;6.43;72.89;99810.19;4935720;29;20052;-66
2022/09/21 05:44:58;;;;;;;2.60;2.05;;;;;;;6.42;72.74;99816.44;4934378;29;20066;-66
2022/09/21 05:47:39;;;;;;;4.38;2.35;;;;;;;6.42;72.71;99819.06;4933832;29;20051;-66
2022/09/21 05:50:30;;;;;;;3.75;2.22;;;;;;;6.43;72.73;99813.66;4934319;29;20047;-66
2022/09/21 05:53:00;;;;;;;2.63;2.30;;;;;;;6.46;72.54;99820.44;4943669;29;20531;-65
2022/09/21 05:55:51;;;;;;;3.22;1.88;;;;;;;6.49;72.63;99820.16;4944373;29;20103;-66
2022/09/21 05:58:35;;;;;;;1.88;1.65;;;;;;;6.54;72.54;99824.97;4943412;29;20039;-68
2022/09/21 06:01:23;;;;;;;2.00;1.40;;;;;;;6.61;72.61;99824.28;4944219;29;20040;-66
2022/09/21 06:03:51;;;;;;;1.73;1.52;;;;;;;6.67;72.75;99830.75;4943378;29;20286;-66
2022/09/21 06:06:18;;;;;;;1.60;1.38;;;;;;;6.76;72.56;99829.88;4944458;29;20040;-67
2022/09/21 06:08:45;;;;;;;1.30;1.20;;;;;;;6.82;72.32;99834.59;4941803;29;20062;-67
2022/09/21 06:11:12;;;;;;;1.60;1.50;;;;;;;6.89;72.23;99832.19;4941172;29;20043;-67
2022/09/21 06:13:42;;;;;;;2.92;1.80;;;;;;;6.95;72.04;99831.63;4942844;29;20047;-68
2022/09/21 06:16:09;;;;;;;1.95;1.63;;;;;;;6.99;71.61;99830.38;4940405;29;20048;-66
2022/09/21 06:18:38;;;;;;;2.05;1.38;;;;;;;7.06;72.10;99838.50;4941816;29;20522;-68
2022/09/21 06:21:05;;;;;;;1.55;1.30;;;;;;;7.11;71.68;99837.09;4941030;29;20051;-67
2022/09/21 06:23:32;;;;;;;1.83;1.67;;;;;;;7.16;71.19;99847.19;4940806;29;20098;-67
2022/09/21 06:25:59;;;;;;;1.92;1.52;;;;;;;7.22;71.41;99848.38;4938593;29;20260;-66
2022/09/21 06:28:26;;;;;;;1.40;1.30;;;;;;;7.31;71.41;99843.09;4936884;29;20054;-67
2022/09/21 06:30:55;;;;;;;1.17;1.08;;;;;;;7.42;71.51;99842.06;4937026;29;20048;-65
2022/09/21 06:33:22;;;;;;;1.10;1.00;;;;;;;7.54;70.96;99837.44;4934496;29;20114;-65
2022/09/21 06:35:57;;;;;;;1.15;1.08;;;;;;;7.63;71.22;99837.38;4935605;29;20066;-65
2022/09/21 06:38:25;;;;;;;1.20;1.10;;;;;;;7.76;70.81;99836.19;4918171;29;20062;-65
2022/09/21 06:40:52;;;;;;;1.50;1.30;;;;;;;7.84;70.62;99838.91;4919428;29;20048;-67
2022/09/21 06:43:18;;;;;;;1.58;1.40;;;;;;;7.87;69.99;99839.41;4935444;29;20058;-66
2022/09/21 06:45:56;;;;;;;1.92;1.73;;;;;;;7.88;70.20;99845.53;4937553;29;20048;-66
2022/09/21 06:48:24;;;;;;;3.17;2.10;;;;;;;7.94;70.11;99850.19;4939026;29;20083;-67
2022/09/21 06:50:50;;;;;;;1.88;1.70;;;;;;;8.01;70.41;99839.88;4938477;29;20095;-66
2022/09/21 06:53:17;;;;;;;2.05;1.75;;;;;;;8.09;70.33;99842.59;4936023;29;20107;-66
2022/09/21 06:55:43;;;;;;;2.20;1.90;;;;;;;8.14;70.08;99843.78;4918138;29;20047;-66
2022/09/21 06:58:10;;;;;;;1.58;1.40;;;;;;;8.23;70.28;99847.31;4917736;29;20048;-67
2022/09/21 07:00:36;;;;;;;1.92;1.70;;;;;;;8.33;69.99;99849.88;4935572;29;20051;-67
2022/09/21 07:03:03;;;;;;;1.60;1.50;;;;;;;8.41;70.34;99842.91;4941949;29;20039;-67
2022/09/21 07:05:31;;;;;;;1.23;1.13;;;;;;;8.51;70.43;99845.44;4940582;29;20044;-67
2022/09/21 07:07:58;;;;;;;1.20;1.10;;;;;;;8.62;70.08;99847.00;4939822;29;20051;-67
2022/09/21 07:10:25;;;;;;;1.60;1.48;;;;;;;8.76;70.03;99848.22;4943078;29;20079;-67
2022/09/21 07:12:52;;;;;;;3.40;2.10;;;;;;;8.87;69.28;99845.34;4941795;29;20044;-67
2022/09/21 07:15:19;;;;;;;2.40;2.15;;;;;;;8.92;69.12;99843.06;4944254;29;20060;-67
2022/09/21 07:17:46;;;;;;;3.00;2.70;;;;;;;9.01;69.06;99843.91;4947423;29;20051;-67
2022/09/21 07:20:17;;;;;;;3.03;2.22;;;;;;;9.08;69.42;99844.94;4948877;29;20067;-67
2022/09/21 07:22:44;;;;;;;1.95;1.60;;;;;;;9.20;69.46;99853.41;4944506;29;20042;-67
2022/09/21 07:25:10;;;;;;;3.22;2.50;;;;;;;9.29;69.18;99845.38;4940677;29;20048;-66
2022/09/21 07:27:37;;;;;;;2.45;2.20;;;;;;;9.41;69.53;99851.19;4937142;29;20055;-66
2022/09/21 07:30:05;;;;;;;2.55;2.30;;;;;;;9.51;69.56;99841.34;4938292;29;20044;-66
2022/09/21 07:32:32;;;;;;;2.58;2.00;;;;;;;9.60;69.40;99843.00;4938615;29;20044;-66
2022/09/21 07:34:59;;;;;;;4.18;2.83;;;;;;;9.72;69.12;99837.44;4921702;29;20048;-66
2022/09/21 07:37:26;;;;;;;2.75;2.45;;;;;;;9.82;69.42;99841.56;4936454;29;20052;-66
2022/09/21 07:39:53;;;;;;;4.45;3.08;;;;;;;9.94;69.27;99844.72;4920870;29;20574;-67
2022/09/21 07:42:21;;;;;;;3.35;2.85;;;;;;;10.05;69.29;99844.41;4936619;29;20071;-65
2022/09/21 07:44:49;;;;;;;3.08;2.70;;;;;;;10.17;69.28;99844.94;4937315;29;20603;-66
2022/09/21 07:47:16;;;;;;;2.70;2.50;;;;;;;10.30;69.46;99842.63;4936270;29;20135;-66
2022/09/21 07:49:45;;;;;;;3.22;2.40;;;;;;;10.42;69.16;99843.13;4936665;29;20059;-66
2022/09/21 07:52:11;;;;;;;3.00;2.30;;;;;;;10.55;69.33;99840.81;4936263;29;20518;-64
2022/09/21 07:54:39;;;;;;;4.03;2.90;;;;;;;10.68;69.11;99842.13;4936433;29;20052;-67
2022/09/21 07:59:51;;;;;;;3.53;2.65;;;;;;;10.87;69.01;99831.16;4937905;29;20058;-66
2022/09/21 08:02:17;;;;;;;4.05;3.22;;;;;;;10.98;69.01;99827.31;4938756;29;20043;-66
2022/09/21 08:04:44;;;;;;;8.70;3.13;;;;;;;11.11;69.09;99827.63;4936225;29;20052;-67
2022/09/21 08:07:11;;;;;;;4.00;3.20;;;;;;;11.21;68.67;99825.59;4935738;29;20052;-67
2022/09/21 08:09:38;;;;;;;4.15;3.20;;;;;;;11.33;68.43;99821.56;4936400;29;20052;-67
2022/09/21 08:12:04;;;;;;;3.80;3.40;;;;;;;11.43;68.32;99817.88;4937388;29;20046;-67
2022/09/21 08:14:31;;;;;;;3.22;2.90;;;;;;;11.52;68.35;99824.81;4936173;29;20090;-68
2022/09/21 08:16:58;;;;;;;2.55;2.33;;;;;;;11.63;68.04;99821.75;4938322;29;20090;-67
2022/09/21 08:19:25;;;;;;;3.80;2.80;;;;;;;11.73;68.02;99817.06;4936615;29;20039;-67
2022/09/21 08:21:52;;;;;;;2.88;2.20;;;;;;;11.82;68.07;99816.00;4935941;29;20059;-66
2022/09/21 08:24:25;;;;;;;4.32;3.00;;;;;;;11.94;67.48;99821.75;4920790;29;20508;-66
2022/09/21 08:26:54;;;;;;;3.90;3.08;;;;;;;12.05;67.49;99816.03;4935669;29;20039;-67
2022/09/21 08:29:22;;;;;;;3.25;2.47;;;;;;;12.15;67.09;99818.44;4935771;29;20515;-67
2022/09/21 08:31:49;;;;;;;2.08;1.90;;;;;;;12.27;67.21;99822.31;4935496;29;20051;-67
2022/09/21 08:34:16;;;;;;;2.47;2.17;;;;;;;12.39;67.06;99820.88;4936228;29;20052;-67
2022/09/21 08:36:43;;;;;;;2.65;1.80;;;;;;;12.50;66.96;99821.47;4935441;29;20043;-67
2022/09/21 08:39:09;;;;;;;1.48;1.38;;;;;;;12.60;66.82;99814.88;4935692;29;20035;-66
2022/09/21 08:42:11;;;;;;;2.35;2.15;;;;;;;12.70;66.48;99813.81;4935585;29;20047;-66
2022/09/21 08:44:51;;;;;;;3.05;1.90;;;;;;;12.78;66.20;99817.22;4935508;29;20058;-66
2022/09/21 08:47:35;;;;;;;2.05;1.88;;;;;;;12.85;65.60;99822.59;4936222;29;20082;-66
2022/09/21 08:50:12;;;;;;;3.33;2.00;;;;;;;12.94;65.01;99815.38;4935620;29;20079;-66
2022/09/21 08:52:39;;;;;;;2.55;1.38;;;;;;;13.02;65.19;99807.31;4936489;29;20098;-66
2022/09/21 08:55:17;;;;;;;2.90;1.60;;;;;;;13.15;64.75;99815.47;4935465;29;20415;-66
2022/09/21 08:57:44;;;;;;;2.53;1.60;;;;;;;13.28;64.62;99810.34;4936230;29;20069;-67
2022/09/21 09:00:16;;;;;;;1.92;1.67;;;;;;;13.41;64.03;99812.34;4935093;29;20048;-67
2022/09/21 09:03:17;;;;;;;2.03;1.40;;;;;;;13.53;63.72;99804.72;4936309;29;20044;-67
2022/09/21 09:05:50;;;;;;;2.05;1.50;;;;;;;13.67;63.54;99800.34;4935331;29;20138;-67
2022/09/21 09:08:51;;;;;;;2.07;1.63;;;;;;;13.74;62.71;99802.09;4934881;29;20066;-67
2022/09/21 09:11:32;;;;;;;2.83;1.80;;;;;;;13.84;62.38;99804.44;4935211;29;20408;-67
2022/09/21 09:14:24;;;;;;;1.75;1.25;;;;;;;13.95;61.90;99806.59;4934951;29;20549;-66
2022/09/21 09:16:57;;;;;;;1.50;1.17;;;;;;;14.04;61.05;99801.94;4935669;29;20056;-66
2022/09/21 09:19:34;;;;;;;2.00;0.80;;;;;;;14.10;60.91;99802.03;4934834;29;20091;-67
2022/09/21 09:22:05;;;;;;;1.13;0.90;;;;;;;14.16;60.32;99797.78;4935983;29;20388;-67
2022/09/21 09:24:41;;;;;;;2.42;0.77;;;;;;;14.24;58.75;99796.81;4935017;29;20412;-67
2022/09/21 09:27:22;;;;;;;0.90;0.80;;;;;;;14.31;58.75;99795.84;4935585;29;20461;-67
2022/09/21 09:30:16;;;;;;;1.65;0.80;;;;;;;14.36;58.72;99789.97;4935933;29;20392;-66
2022/09/21 09:33:01;;;;;;;1.52;0.85;;;;;;;14.41;56.81;99792.03;4933856;29;20445;-66
2022/09/21 09:35:43;;;;;;;0.93;0.80;;;;;;;14.48;57.91;99788.41;4934872;29;20063;-66
2022/09/21 09:38:20;;;;;;;1.73;1.10;;;;;;;14.56;58.00;99787.47;4934207;29;20052;-66
2022/09/21 09:40:56;;;;;;;2.17;1.35;;;;;;;14.65;57.01;99788.16;4935676;29;20044;-66
2022/09/21 09:43:49;;;;;;;2.55;0.80;;;;;;;14.68;55.80;99788.59;4934760;29;20050;-65
2022/09/21 09:46:44;;;;;;;3.28;0.70;;;;;;;14.77;56.29;99781.25;4934253;29;20067;-66
2022/09/21 09:49:23;;;;;;;1.58;0.70;;;;;;;14.90;55.43;99776.03;4934496;29;20415;-66
2022/09/21 09:51:50;;;;;;;1.63;0.90;;;;;;;15.01;55.38;99774.63;4934334;29;20051;-65
2022/09/21 09:54:20;;;;;;;1.35;0.70;;;;;;;15.15;55.36;99779.03;4934190;29;20051;-67
2022/09/21 09:56:47;;;;;;;1.52;0.90;;;;;;;15.27;55.11;99772.09;4935622;29;20396;-66
2022/09/21 09:59:22;;;;;;;1.55;0.98;;;;;;;15.42;54.65;99771.94;4936156;29;20066;-66
2022/09/21 10:02:00;;;;;;;1.50;0.90;;;;;;;15.52;54.08;99771.56;4935073;29;20060;-66
2022/09/21 10:04:28;;;;;;;3.78;1.10;;;;;;;15.54;53.65;99767.66;4918870;29;20044;-65
2022/09/21 10:06:55;;;;;;;1.08;0.90;;;;;;;15.49;53.57;99763.97;4934408;29;20044;-66
2022/09/21 10:09:24;;;;;;;2.08;1.00;;;;;;;15.49;53.71;99755.97;4936494;29;20463;-66
2022/09/21 10:11:53;;;;;;;1.15;0.90;;;;;;;15.52;53.22;99753.72;4935401;29;20043;-67
2022/09/21 10:14:23;;;;;;;1.45;0.70;;;;;;;15.47;53.37;99756.19;4933850;29;20048;-67
2022/09/21 10:16:52;;;;;;;1.00;0.73;;;;;;;15.55;53.07;99750.66;4949474;23;20062;-67
2022/09/21 10:19:23;;;;;;;1.30;1.00;;;;;;;15.63;53.20;99744.31;4916194;29;20052;-67
2022/09/21 10:21:58;;;;;;;2.35;1.00;;;;;;;15.61;52.08;99747.19;4916579;29;20044;-66
2022/09/21 10:24:36;;;;;;;1.40;1.00;;;;;;;15.68;51.62;99751.75;4915348;29;20052;-67
2022/09/21 10:27:15;;;;;;;1.63;1.00;;;;;;;15.70;51.98;99750.50;4916233;29;20052;-67
2022/09/21 10:29:46;;;;;;;1.58;0.90;;;;;;;15.68;50.94;99744.56;4918796;29;20052;-67
2022/09/21 10:32:24;;;;;;;2.55;1.00;;;;;;;15.70;51.16;99750.50;4920359;29;20056;-67
2022/09/21 10:35:13;;;;;;;1.95;1.10;;;;;;;15.71;48.75;99746.00;4920396;29;20052;-68
2022/09/21 10:37:45;;;;;;;1.15;0.77;;;;;;;15.78;50.45;99742.31;4926652;29;20044;-66
2022/09/21 10:40:18;;;;;;;1.48;0.80;;;;;;;15.85;49.47;99739.66;4930285;29;20059;-67
2022/09/21 10:42:47;;;;;;;1.33;0.80;;;;;;;15.94;49.58;99743.75;4932401;29;20044;-67
2022/09/21 10:45:18;;;;;;;1.40;0.90;;;;;;;16.03;49.33;99739.06;4935511;29;20044;-66
2022/09/21 10:47:48;;;;;;;1.27;0.80;;;;;;;16.08;49.28;99736.56;4933598;29;20111;-66
2022/09/21 10:50:33;;;;;;;1.13;0.80;;;;;;;15.97;46.35;99731.88;4920301;29;20044;-66
2022/09/21 10:53:06;;;;;;;2.40;0.95;;;;;;;16.07;48.78;99729.59;4903012;29;20067;-66
2022/09/21 10:55:37;;;;;;;1.48;0.98;;;;;;;16.11;47.44;99728.16;4925009;29;20040;-65
2022/09/21 10:58:14;;;;;;;1.35;0.75;;;;;;;16.15;48.04;99734.72;4916528;29;20056;-65
2022/09/21 11:00:46;;;;;;;2.38;0.65;;;;;;;16.30;47.72;99729.19;4923586;29;20048;-66
2022/09/21 11:03:30;;;;;;;2.33;0.70;;;;;;;16.34;47.30;99738.44;4920010;29;20508;-66
2022/09/21 11:06:03;;;;;;;3.05;0.88;;;;;;;16.27;46.94;99733.09;4918656;29;20100;-66
2022/09/21 11:08:35;;;;;;;0.85;0.70;;;;;;;16.24;47.79;99728.16;4919975;29;20389;-66
2022/09/21 11:11:27;;;;;;;4.15;0.80;;;;;;;16.33;47.59;99734.94;4919906;29;20413;-66
2022/09/21 11:14:17;;;;;;;1.15;0.80;;;;;;;16.37;46.67;99737.19;4919544;29;20052;-66
2022/09/21 11:17:16;;;;;;;1.23;0.65;;;;;;;16.41;46.48;99722.38;4918948;29;20460;-67
2022/09/21 11:20:10;;;;;;;0.77;0.60;;;;;;;16.54;45.18;99725.88;4919830;29;20056;-65
2022/09/21 11:22:52;;;;;;;1.38;0.70;;;;;;;16.63;44.97;99721.13;4902476;29;20079;-67
2022/09/21 11:25:35;;;;;;;1.15;0.60;;;;;;;16.67;45.37;99718.84;4919159;29;20642;-65
2022/09/21 11:28:32;;;;;;;0.70;0.70;;;;;;;16.78;44.89;99719.06;4917325;29;20393;-65
2022/09/21 11:31:14;;;;;;;0.50;0.50;;;;;;;16.89;45.48;99719.41;4918536;29;20085;-66
2022/09/21 11:34:05;;;;;;;0.80;0.60;;;;;;;16.95;44.58;99723.94;4919476;29;20050;-66
2022/09/21 11:36:56;;;;;;;1.20;0.60;;;;;;;16.96;44.41;99721.03;4918546;29;20457;-66
2022/09/21 11:39:49;;;;;;;0.77;0.57;;;;;;;16.96;44.46;99725.56;4917881;29;20052;-65
2022/09/21 11:42:52;;;;;;;0.70;0.55;;;;;;;17.00;44.49;99716.91;4917703;29;20048;-66
2022/09/21 11:45:31;;;;;;;1.02;0.70;;;;;;;16.89;42.90;99714.91;4918721;29;20079;-68
2022/09/21 11:48:23;;;;;;;1.33;0.70;;;;;;;16.93;43.38;99712.63;4918202;29;20456;-66
2022/09/21 11:51:05;;;;;;;0.40;0.40;;;;;;;16.97;43.20;99708.50;4918550;29;20076;-66
2022/09/21 11:54:02;;;;;;;1.73;0.60;;;;;;;17.13;43.81;99707.19;4917372;29;20492;-66
2022/09/21 11:56:42;;;;;;;1.50;0.68;;;;;;;17.27;43.00;99706.94;4917544;29;20059;-65
2022/09/21 11:59:31;;;;;;;1.00;0.60;;;;;;;17.31;41.76;99701.97;4917252;29;20052;-65
2022/09/21 12:02:13;;;;;;;0.75;0.60;;;;;;;17.38;43.19;99692.06;4917354;29;20071;-65
2022/09/21 12:05:00;;;;;;;0.88;0.70;;;;;;;17.29;43.05;99693.34;4918483;29;20048;-67
2022/09/21 12:07:45;;;;;;;0.95;0.50;;;;;;;17.03;43.11;99705.81;4916671;29;20108;-66
2022/09/21 12:10:32;;;;;;;2.20;0.80;;;;;;;17.05;42.70;99693.06;4917159;29;20044;-66
2022/09/21 12:13:16;;;;;;;1.05;0.77;;;;;;;17.19;42.93;99696.50;4918247;29;20040;-65
2022/09/21 12:16:03;;;;;;;2.40;0.80;;;;;;;17.16;42.33;99694.25;4918216;29;20044;-65